createdAt,value
2022-09-28T00:01:22.857Z,99179.09
2022-09-28T00:03:52.216Z,99182.25
2022-09-28T00:06:22.301Z,99190.03
2022-09-28T00:08:50.407Z,99172.50
2022-09-28T00:11:20.142Z,99171.06
2022-09-28T00:13:52.441Z,99173.41
2022-09-28T00:16:22.552Z,99175.94
2022-09-28T00:18:51.346Z,99171.53
2022-09-28T00:21:22.233Z,99166.94
2022-09-28T00:24:15.675Z,99161.91
2022-09-28T00:26:52.759Z,99168.75
2022-09-28T00:29:28.337Z,99171.19
2022-09-28T00:32:00.180Z,99175.41
2022-09-28T00:34:32.248Z,99181.06
2022-09-28T00:37:00.610Z,99183.09
2022-09-28T00:39:28.058Z,99172.91
2022-09-28T00:41:56.101Z,99170.81
2022-09-28T00:44:26.483Z,99159.94
2022-09-28T00:47:19.913Z,99153.47
2022-09-28T00:50:33.760Z,99160.78
2022-09-28T00:53:12.013Z,99168.75
2022-09-28T00:55:43.941Z,99171.28
2022-09-28T00:58:14.168Z,99172.13
2022-09-28T01:00:41.996Z,99175.50
2022-09-28T01:03:10.311Z,99173.63
2022-09-28T01:05:47.191Z,99173.63
2022-09-28T01:08:15.543Z,99175.50
2022-09-28T01:10:46.307Z,99179.88
2022-09-28T01:13:14.260Z,99176.13
2022-09-28T01:15:51.236Z,99178.84
2022-09-28T01:18:44.593Z,99167.41
2022-09-28T01:21:17.511Z,99163.00
2022-09-28T01:24:03.152Z,99159.25
2022-09-28T01:26:49.460Z,99157.78
2022-09-28T01:29:22.670Z,99169.66
2022-09-28T01:31:58.834Z,99163.59
2022-09-28T01:34:34.701Z,99162.75
2022-09-28T01:37:05.342Z,99159.00
2022-09-28T01:39:45.847Z,99151.41
2022-09-28T01:42:19.177Z,99147.53
2022-09-28T01:44:48.956Z,99146.03
2022-09-28T01:47:21.398Z,99153.59
2022-09-28T01:49:54.225Z,99154.50
2022-09-28T01:52:40.655Z,99159.38
2022-09-28T01:55:12.506Z,99165.47
2022-09-28T01:57:43.289Z,99172.78
2022-09-28T02:00:13.613Z,99170.50
2022-09-28T02:03:03.456Z,99168.66
2022-09-28T02:05:33.500Z,99171.16
2022-09-28T02:08:13.015Z,99180.16
2022-09-28T02:10:44.586Z,99185.59
2022-09-28T02:13:34.199Z,99185.59
2022-09-28T02:16:05.879Z,99175.56
2022-09-28T02:18:33.652Z,99178.47
2022-09-28T02:21:29.773Z,99179.69
2022-09-28T02:24:03.679Z,99182.41
2022-09-28T02:26:34.855Z,99186.53
2022-09-28T02:29:02.105Z,99177.94
2022-09-28T02:31:29.899Z,99193.00
2022-09-28T02:33:58.362Z,99179.44
2022-09-28T02:36:26.808Z,99181.94
2022-09-28T02:38:55.236Z,99181.56
2022-09-28T02:41:40.077Z,99179.22
2022-09-28T02:44:19.476Z,99183.66
2022-09-28T02:46:49.444Z,99180.47
2022-09-28T02:49:38.713Z,99179.81
2022-09-28T02:52:33.865Z,99172.50
2022-09-28T02:55:13.666Z,99175.22
2022-09-28T02:58:05.392Z,99167.06
2022-09-28T03:00:41.284Z,99175.03
2022-09-28T03:03:10.524Z,99182.34
2022-09-28T03:05:53.089Z,99193.00
2022-09-28T03:08:35.783Z,99192.81
2022-09-28T03:11:07.951Z,99191.81
2022-09-28T03:13:36.330Z,99197.88
2022-09-28T03:16:12.666Z,99198.91
2022-09-28T03:18:40.516Z,99198.25
2022-09-28T03:21:08.258Z,99200.31
2022-09-28T03:23:36.068Z,99201.81
2022-09-28T03:26:03.460Z,99208.53
2022-09-28T03:28:30.715Z,99202.25
2022-09-28T03:30:58.335Z,99204.81
2022-09-28T03:33:25.680Z,99208.75
2022-09-28T03:35:53.454Z,99207.69
2022-09-28T03:38:21.317Z,99201.25
2022-09-28T03:40:55.773Z,99201.25
2022-09-28T03:43:26.346Z,99196.44
2022-09-28T03:46:04.222Z,99194.94
2022-09-28T03:48:36.144Z,99189.34
2022-09-28T03:51:05.772Z,99197.28
2022-09-28T03:53:33.718Z,99192.69
2022-09-28T03:56:12.308Z,99196.44
2022-09-28T03:58:40.984Z,99189.13
2022-09-28T04:01:16.539Z,99190.81
2022-09-28T04:03:45.369Z,99191.69
2022-09-28T04:06:13.375Z,99187.91
2022-09-28T04:08:43.101Z,99182.28
2022-09-28T04:11:10.971Z,99187.50
2022-09-28T04:13:38.298Z,99201.75
2022-09-28T04:16:06.069Z,99196.34
2022-09-28T04:18:35.392Z,99201.38
2022-09-28T04:21:06.882Z,99197.06
2022-09-28T04:23:35.575Z,99209.13
2022-09-28T04:26:04.826Z,99216.31
2022-09-28T04:28:52.380Z,99222.00
2022-09-28T04:31:22.297Z,99227.44
2022-09-28T04:33:50.028Z,99226.97
2022-09-28T04:36:19.729Z,99225.19
2022-09-28T04:38:53.109Z,99241.41
2022-09-28T04:41:24.519Z,99224.06
2022-09-28T04:43:52.141Z,99218.91
2022-09-28T04:46:19.950Z,99214.56
2022-09-28T04:48:47.329Z,99207.56
2022-09-28T04:51:15.319Z,99204.75
2022-09-28T04:53:42.642Z,99206.38
2022-09-28T04:56:12.712Z,99205.38
2022-09-28T04:58:40.362Z,99207.31
2022-09-28T05:01:12.853Z,99202.53
2022-09-28T05:03:40.284Z,99211.13
2022-09-28T05:06:08.081Z,99218.63
2022-09-28T05:08:36.269Z,99224.69
2022-09-28T05:11:06.542Z,99220.28
2022-09-28T05:13:40.397Z,99221.19
2022-09-28T05:16:08.809Z,99216.91
2022-09-28T05:18:36.466Z,99230.63
2022-09-28T05:21:04.642Z,99228.53
2022-09-28T05:23:34.311Z,99229.19
2022-09-28T05:26:02.511Z,99229.84
2022-09-28T05:28:32.949Z,99223.94
2022-09-28T05:31:03.408Z,99230.81
2022-09-28T05:33:33.760Z,99233.75
2022-09-28T05:36:01.875Z,99228.09
2022-09-28T05:38:30.492Z,99226.88
2022-09-28T05:40:58.007Z,99229.84
2022-09-28T05:43:25.449Z,99235.91
2022-09-28T05:45:55.521Z,99241.53
2022-09-28T05:48:23.559Z,99235.78
2022-09-28T05:50:54.220Z,99244.91
2022-09-28T05:53:21.482Z,99246.69
2022-09-28T05:55:48.693Z,99244.47
2022-09-28T05:58:17.128Z,99239.13
2022-09-28T06:00:44.700Z,99240.44
2022-09-28T06:03:13.316Z,99243.88
2022-09-28T06:05:41.007Z,99239.75
2022-09-28T06:08:10.619Z,99239.63
2022-09-28T06:10:39.434Z,99237.22
2022-09-28T06:13:07.244Z,99243.22
2022-09-28T06:15:36.328Z,99234.28
2022-09-28T06:18:10.068Z,99227.19
2022-09-28T06:20:41.088Z,99227.31
2022-09-28T06:23:09.987Z,99230.16
2022-09-28T06:25:37.703Z,99233.72
2022-09-28T06:28:11.380Z,99239.50
2022-09-28T06:30:39.232Z,99242.28
2022-09-28T06:33:08.382Z,99241.53
2022-09-28T06:35:36.034Z,99249.13
2022-09-28T06:38:03.516Z,99246.09
2022-09-28T06:40:31.285Z,99245.38
2022-09-28T06:43:06.989Z,99246.16
2022-09-28T06:45:34.696Z,99249.72
2022-09-28T06:48:02.283Z,99247.56
2022-09-28T06:50:32.778Z,99259.69
2022-09-28T06:53:01.046Z,99264.66
2022-09-28T06:55:29.382Z,99266.72
2022-09-28T06:58:04.913Z,99270.34
2022-09-28T07:00:34.954Z,99271.72
2022-09-28T07:03:06.266Z,99274.94
2022-09-28T07:05:36.874Z,99272.22
2022-09-28T07:08:04.964Z,99272.97
2022-09-28T07:10:33.644Z,99268.69
2022-09-28T07:13:04.167Z,99274.47
2022-09-28T07:15:32.423Z,99269.03
2022-09-28T07:18:03.490Z,99270.16
2022-09-28T07:20:49.938Z,99268.59
2022-09-28T07:23:19.990Z,99275.50
2022-09-28T07:25:50.272Z,99292.06
2022-09-28T07:28:17.557Z,99287.09
2022-09-28T07:30:45.811Z,99293.00
2022-09-28T07:33:15.972Z,99307.06
2022-09-28T07:35:51.288Z,99306.69
2022-09-28T07:38:19.087Z,99308.53
2022-09-28T07:41:05.677Z,99306.31
2022-09-28T07:43:35.407Z,99300.28
2022-09-28T07:46:02.888Z,99296.63
2022-09-28T07:48:37.823Z,99296.22
2022-09-28T07:51:09.222Z,99284.41
2022-09-28T07:53:38.317Z,99292.69
2022-09-28T07:56:11.744Z,99296.13
2022-09-28T07:58:39.744Z,99286.34
2022-09-28T08:01:11.246Z,99288.13
2022-09-28T08:03:39.225Z,99280.50
2022-09-28T08:06:11.373Z,99278.41
2022-09-28T08:08:44.624Z,99281.16
2022-09-28T08:11:16.569Z,99283.00
2022-09-28T08:13:45.570Z,99285.63
2022-09-28T08:16:13.675Z,99289.31
2022-09-28T08:18:43.570Z,99284.53
2022-09-28T08:21:30.124Z,99287.50
2022-09-28T08:23:59.076Z,99284.09
2022-09-28T08:26:26.821Z,99287.16
2022-09-28T08:28:54.249Z,99283.59
2022-09-28T08:31:21.532Z,99277.38
2022-09-28T08:33:53.041Z,99282.09
2022-09-28T08:36:24.001Z,99277.19
2022-09-28T08:38:51.557Z,99278.72
2022-09-28T08:41:27.593Z,99276.09
2022-09-28T08:43:57.723Z,99278.00
2022-09-28T08:46:31.234Z,99274.06
2022-09-28T08:49:26.359Z,99280.00
2022-09-28T08:51:55.144Z,99273.44
2022-09-28T08:54:59.837Z,99272.53
2022-09-28T08:57:53.623Z,99279.41
2022-09-28T09:00:35.359Z,99282.38
2022-09-28T09:03:06.050Z,99274.88
2022-09-28T09:05:58.205Z,99276.63
2022-09-28T09:08:49.262Z,99280.56
2022-09-28T09:11:35.250Z,99276.06
2022-09-28T09:14:21.029Z,99280.53
2022-09-28T09:17:04.105Z,99284.16
2022-09-28T09:19:33.265Z,99276.38
2022-09-28T09:22:11.448Z,99278.88
2022-09-28T09:24:49.899Z,99284.34
2022-09-28T09:27:38.098Z,99272.38
2022-09-28T09:30:15.003Z,99267.13
2022-09-28T09:33:05.630Z,99257.28
2022-09-28T09:35:52.711Z,99263.34
2022-09-28T09:38:52.901Z,99262.19
2022-09-28T09:41:52.142Z,99254.94
2022-09-28T09:45:01.852Z,99255.66
2022-09-28T09:47:43.000Z,99258.16
2022-09-28T09:50:29.948Z,99268.03
2022-09-28T09:53:13.224Z,99258.78
2022-09-28T09:55:44.672Z,99266.53
2022-09-28T09:58:23.921Z,99262.97
2022-09-28T10:00:52.871Z,99256.44
2022-09-28T10:03:30.716Z,99265.41
2022-09-28T10:06:03.920Z,99258.84
2022-09-28T10:08:34.786Z,99272.03
2022-09-28T10:11:10.822Z,99271.75
2022-09-28T10:13:39.134Z,99279.84
2022-09-28T10:16:07.812Z,99278.50
2022-09-28T10:18:38.888Z,99277.63
2022-09-28T10:21:06.312Z,99284.75
2022-09-28T10:23:36.731Z,99284.94
2022-09-28T10:26:28.704Z,99284.00
2022-09-28T10:28:59.896Z,99276.16
2022-09-28T10:31:38.268Z,99262.63
2022-09-28T10:34:07.652Z,99270.38
2022-09-28T10:36:46.373Z,99266.97
2022-09-28T10:39:47.503Z,99266.00
2022-09-28T10:42:21.279Z,99272.97
2022-09-28T10:45:05.232Z,99283.09
2022-09-28T10:47:33.653Z,99273.84
2022-09-28T10:50:01.576Z,99276.78
2022-09-28T10:52:32.082Z,99280.56
2022-09-28T10:55:01.809Z,99274.25
2022-09-28T10:57:37.240Z,99276.56
2022-09-28T11:00:07.217Z,99272.34
2022-09-28T11:02:37.866Z,99269.59
2022-09-28T11:05:07.008Z,99271.97
2022-09-28T11:07:45.932Z,99266.50
2022-09-28T11:10:39.418Z,99269.22
2022-09-28T11:13:09.604Z,99277.63
2022-09-28T11:15:42.170Z,99270.28
2022-09-28T11:18:31.538Z,99276.53
2022-09-28T11:21:15.903Z,99270.06
2022-09-28T11:23:55.990Z,99284.97
2022-09-28T11:26:23.944Z,99280.34
2022-09-28T11:28:52.871Z,99282.44
2022-09-28T11:31:29.544Z,99276.34
2022-09-28T11:34:13.201Z,99273.41
2022-09-28T11:37:10.650Z,99282.03
2022-09-28T11:39:37.885Z,99281.34
2022-09-28T11:42:16.330Z,99283.47
2022-09-28T11:44:48.718Z,99279.88
2022-09-28T11:47:26.496Z,99285.16
2022-09-28T11:50:11.994Z,99272.75
2022-09-28T11:52:49.167Z,99278.47
2022-09-28T11:55:34.857Z,99274.00
2022-09-28T11:58:14.396Z,99281.81
2022-09-28T12:00:46.609Z,99284.50
2022-09-28T12:03:22.187Z,99277.56
2022-09-28T12:05:52.756Z,99280.72
2022-09-28T12:08:31.936Z,99276.53
2022-09-28T12:11:02.902Z,99282.19
2022-09-28T12:13:50.271Z,99277.94
2022-09-28T12:17:00.964Z,99277.72
2022-09-28T12:19:33.884Z,99268.94
2022-09-28T12:22:07.648Z,99271.66
2022-09-28T12:24:40.163Z,99275.66
2022-09-28T12:27:10.373Z,99281.81
2022-09-28T12:29:51.255Z,99278.66
2022-09-28T12:32:31.012Z,99278.88
2022-09-28T12:34:58.577Z,99283.28
2022-09-28T12:37:58.982Z,99276.34
2022-09-28T12:40:41.719Z,99290.44
2022-09-28T12:43:40.670Z,99291.91
2022-09-28T12:46:26.469Z,99279.28
2022-09-28T12:49:51.564Z,99286.03
2022-09-28T12:51:54.030Z,99288.56
2022-09-28T12:54:34.633Z,99291.69
2022-09-28T12:57:08.081Z,99287.50
2022-09-28T12:59:39.353Z,99284.13
2022-09-28T13:02:37.733Z,99282.44
2022-09-28T13:05:24.562Z,99285.63
2022-09-28T13:08:24.690Z,99290.44
2022-09-28T13:11:08.034Z,99295.69
2022-09-28T13:13:41.506Z,99293.19
2022-09-28T13:16:17.696Z,99299.69
2022-09-28T13:19:20.791Z,99298.00
2022-09-28T13:21:59.440Z,99293.81
2022-09-28T13:24:33.138Z,99295.88
2022-09-28T13:27:10.381Z,99307.78
2022-09-28T13:32:12.800Z,99304.16
2022-09-28T13:34:40.191Z,99304.56
2022-09-28T13:37:25.492Z,99300.56
2022-09-28T13:40:00.196Z,99303.06
2022-09-28T13:42:46.175Z,99315.44
2022-09-28T13:45:22.861Z,99322.34
2022-09-28T13:47:56.418Z,99314.56
2022-09-28T13:50:27.690Z,99321.25
2022-09-28T13:53:02.150Z,99331.97
2022-09-28T13:55:48.202Z,99331.13
2022-09-28T13:58:38.680Z,99343.91
2022-09-28T14:01:10.647Z,99345.19
2022-09-28T14:03:55.325Z,99343.09
2022-09-28T14:06:33.140Z,99345.63
2022-09-28T14:09:13.171Z,99345.84
2022-09-28T14:11:42.563Z,99338.06
2022-09-28T14:14:14.334Z,99342.28
2022-09-28T14:16:42.380Z,99343.50
2022-09-28T14:19:24.628Z,99343.28
2022-09-28T14:21:58.322Z,99358.34
2022-09-28T14:24:34.558Z,99346.75
2022-09-28T14:27:27.240Z,99342.91
2022-09-28T14:30:07.139Z,99353.13
2022-09-28T14:32:36.552Z,99352.22
2022-09-28T14:35:18.766Z,99353.63
2022-09-28T14:38:07.795Z,99354.31
2022-09-28T14:41:09.986Z,99360.47
2022-09-28T14:43:58.729Z,99355.00
2022-09-28T14:46:29.590Z,99359.16
2022-09-28T14:48:57.709Z,99359.91
2022-09-28T14:51:24.886Z,99361.53
2022-09-28T14:54:05.797Z,99354.13
2022-09-28T14:56:53.642Z,99360.38
2022-09-28T14:59:30.739Z,99352.59
2022-09-28T15:02:11.113Z,99355.03
2022-09-28T15:04:43.963Z,99357.31
2022-09-28T15:07:23.912Z,99358.53
2022-09-28T15:09:54.241Z,99368.31
2022-09-28T15:12:28.949Z,99348.81
2022-09-28T15:15:07.070Z,99359.44
2022-09-28T15:17:39.725Z,99360.00
2022-09-28T15:20:30.051Z,99382.16
2022-09-28T15:22:59.608Z,99386.47
2022-09-28T15:25:29.991Z,99383.50
2022-09-28T15:28:03.529Z,99387.16
2022-09-28T15:30:36.636Z,99393.81
2022-09-28T15:33:23.801Z,99392.91
2022-09-28T15:36:15.231Z,99392.16
2022-09-28T15:38:43.296Z,99396.63
2022-09-28T15:41:11.257Z,99408.91
2022-09-28T15:43:41.519Z,99414.91
2022-09-28T15:46:21.168Z,99416.13
2022-09-28T15:48:55.497Z,99419.03
2022-09-28T15:51:25.950Z,99428.59
2022-09-28T15:54:03.049Z,99415.56
2022-09-28T15:56:31.172Z,99428.47
2022-09-28T15:59:15.316Z,99428.00
2022-09-28T16:01:43.771Z,99433.34
2022-09-28T16:04:37.388Z,99437.47
2022-09-28T16:07:17.825Z,99437.16
2022-09-28T16:10:04.153Z,99432.09
2022-09-28T16:12:42.036Z,99431.97
2022-09-28T16:15:20.480Z,99435.63
2022-09-28T16:17:54.444Z,99429.34
2022-09-28T16:20:27.753Z,99428.00
2022-09-28T16:23:05.938Z,99438.59
2022-09-28T16:25:37.703Z,99440.66
2022-09-28T16:28:05.985Z,99441.84
2022-09-28T16:30:34.699Z,99434.94
2022-09-28T16:33:11.301Z,99435.09
2022-09-28T16:35:43.632Z,99453.06
2022-09-28T16:38:12.379Z,99454.78
2022-09-28T16:40:46.399Z,99460.19
2022-09-28T16:43:27.002Z,99461.88
2022-09-28T16:45:59.736Z,99464.78
2022-09-28T16:48:29.216Z,99469.53
2022-09-28T16:50:57.199Z,99481.59
2022-09-28T16:53:43.096Z,99482.16
2022-09-28T16:56:11.272Z,99486.63
2022-09-28T16:58:39.264Z,99486.44
2022-09-28T17:01:10.131Z,99495.81
2022-09-28T17:03:37.681Z,99490.53
2022-09-28T17:06:06.387Z,99484.97
2022-09-28T17:08:36.155Z,99487.28
2022-09-28T17:11:24.706Z,99496.47
2022-09-28T17:13:59.082Z,99492.06
2022-09-28T17:16:59.937Z,99494.78
2022-09-28T17:19:23.247Z,99490.06
2022-09-28T17:21:51.802Z,99496.88
2022-09-28T17:24:19.544Z,99496.38
2022-09-28T17:26:49.061Z,99504.03
2022-09-28T17:29:22.336Z,99501.88
2022-09-28T17:31:50.318Z,99511.41
2022-09-28T17:34:17.931Z,99504.69
2022-09-28T17:36:45.433Z,99512.31
2022-09-28T17:39:14.439Z,99514.34
2022-09-28T17:41:42.099Z,99508.28
2022-09-28T17:44:09.651Z,99503.19
2022-09-28T17:46:39.617Z,99510.88
2022-09-28T17:49:07.949Z,99508.81
2022-09-28T17:51:37.687Z,99497.47
2022-09-28T17:54:06.169Z,99494.59
2022-09-28T17:56:34.133Z,99501.56
2022-09-28T17:59:07.131Z,99501.25
2022-09-28T18:01:35.061Z,99514.09
2022-09-28T18:04:05.083Z,99515.00
2022-09-28T18:06:33.845Z,99529.53
2022-09-28T18:09:05.021Z,99533.47
2022-09-28T18:11:33.311Z,99538.69
2022-09-28T18:14:00.863Z,99531.94
2022-09-28T18:16:28.969Z,99531.91
2022-09-28T18:18:58.327Z,99532.41
2022-09-28T18:21:25.631Z,99540.56
2022-09-28T18:23:52.848Z,99535.31
2022-09-28T18:26:20.146Z,99541.41
2022-09-28T18:28:47.545Z,99540.38
2022-09-28T18:31:15.981Z,99547.31
2022-09-28T18:33:43.499Z,99542.75
2022-09-28T18:36:10.960Z,99541.19
2022-09-28T18:38:47.941Z,99541.16
2022-09-28T18:41:16.148Z,99546.91
2022-09-28T18:43:49.199Z,99546.56
2022-09-28T18:46:18.372Z,99550.97
2022-09-28T18:48:47.917Z,99545.72
2022-09-28T18:51:15.211Z,99552.47
2022-09-28T18:53:43.438Z,99549.22
2022-09-28T18:56:13.088Z,99551.78
2022-09-28T18:58:41.817Z,99549.25
2022-09-28T19:04:00.717Z,99553.31
2022-09-28T19:06:28.330Z,99562.69
2022-09-28T19:08:56.443Z,99567.25
2022-09-28T19:11:24.936Z,99561.50
2022-09-28T19:13:53.780Z,99565.25
2022-09-28T19:16:25.591Z,99564.06
2022-09-28T19:18:53.722Z,99558.97
2022-09-28T19:21:21.372Z,99568.81
2022-09-28T19:23:49.710Z,99569.84
2022-09-28T19:26:22.539Z,99576.59
2022-09-28T19:28:50.383Z,99578.28
2022-09-28T19:31:17.940Z,99578.81
2022-09-28T19:33:46.444Z,99580.88
2022-09-28T19:36:19.457Z,99580.00
2022-09-28T19:38:46.786Z,99588.81
2022-09-28T19:41:39.184Z,99587.97
2022-09-28T19:44:27.447Z,99592.53
2022-09-28T19:47:10.211Z,99592.03
2022-09-28T19:49:39.987Z,99602.69
2022-09-28T19:52:13.785Z,99606.44
2022-09-28T19:54:44.566Z,99615.38
2022-09-28T19:57:13.454Z,99610.13
2022-09-28T19:59:40.860Z,99614.53
2022-09-28T20:02:10.467Z,99619.97
2022-09-28T20:04:40.649Z,99621.63
2022-09-28T20:07:08.048Z,99620.97
2022-09-28T20:09:38.269Z,99628.63
2022-09-28T20:12:06.078Z,99631.66
2022-09-28T20:14:37.982Z,99634.88
2022-09-28T20:17:07.254Z,99635.22
2022-09-28T20:19:35.080Z,99628.63
2022-09-28T20:22:02.836Z,99628.78
2022-09-28T20:24:31.349Z,99632.38
2022-09-28T20:26:58.948Z,99633.34
2022-09-28T20:29:26.834Z,99634.06
2022-09-28T20:31:54.205Z,99634.06
2022-09-28T20:34:21.522Z,99627.59
2022-09-28T20:36:48.671Z,99636.44
2022-09-28T20:39:16.292Z,99635.22
2022-09-28T20:41:43.849Z,99640.31
2022-09-28T20:44:11.143Z,99648.25
2022-09-28T20:46:38.416Z,99649.94
2022-09-28T20:49:07.099Z,99637.41
2022-09-28T20:51:34.503Z,99645.53
2022-09-28T20:54:01.696Z,99647.41
2022-09-28T20:56:37.797Z,99654.00
2022-09-28T20:59:10.802Z,99651.66
2022-09-28T21:01:38.798Z,99651.81
2022-09-28T21:04:08.170Z,99653.88
2022-09-28T21:06:38.435Z,99640.66
2022-09-28T21:09:06.842Z,99639.28
2022-09-28T21:11:35.707Z,99640.97
2022-09-28T21:14:06.615Z,99639.63
2022-09-28T21:16:35.570Z,99640.84
2022-09-28T21:19:03.718Z,99649.28
2022-09-28T21:21:31.458Z,99660.31
2022-09-28T21:23:58.949Z,99667.94
2022-09-28T21:26:28.441Z,99665.91
2022-09-28T21:29:06.327Z,99670.28
2022-09-28T21:31:41.501Z,99669.41
2022-09-28T21:34:13.496Z,99674.81
2022-09-28T21:36:43.553Z,99675.66
2022-09-28T21:39:11.165Z,99670.91
2022-09-28T21:41:38.408Z,99674.97
2022-09-28T21:44:06.942Z,99681.03
2022-09-28T21:46:35.484Z,99683.06
2022-09-28T21:49:04.721Z,99695.22
2022-09-28T21:51:32.891Z,99684.03
2022-09-28T21:54:00.038Z,99690.63
2022-09-28T21:56:27.877Z,99691.97
2022-09-28T21:58:55.351Z,99692.47
2022-09-28T22:01:25.750Z,99695.50
2022-09-28T22:03:56.205Z,99703.25
2022-09-28T22:06:27.997Z,99701.03
2022-09-28T22:08:55.539Z,99702.38
2022-09-28T22:11:24.468Z,99710.81
2022-09-28T22:13:55.029Z,99710.59
2022-09-28T22:16:24.009Z,99710.41
2022-09-28T22:18:53.557Z,99718.16
2022-09-28T22:21:23.899Z,99721.34
2022-09-28T22:23:51.512Z,99728.22
2022-09-28T22:26:24.799Z,99734.94
2022-09-28T22:28:56.853Z,99736.13
2022-09-28T22:31:27.247Z,99743.00
2022-09-28T22:33:55.020Z,99739.78
2022-09-28T22:36:22.560Z,99748.19
2022-09-28T22:38:50.371Z,99761.19
2022-09-28T22:41:20.934Z,99752.84
2022-09-28T22:43:49.900Z,99752.00
2022-09-28T22:46:19.837Z,99750.59
2022-09-28T22:48:49.188Z,99757.31
2022-09-28T22:51:16.992Z,99769.88
2022-09-28T22:53:44.305Z,99764.28
2022-09-28T22:56:18.442Z,99756.84
2022-09-28T22:58:47.250Z,99766.53
2022-09-28T23:01:15.599Z,99761.66
2022-09-28T23:03:44.859Z,99770.31
2022-09-28T23:06:14.997Z,99764.41
2022-09-28T23:08:44.503Z,99775.78
2022-09-28T23:11:12.086Z,99774.47
2022-09-28T23:13:39.789Z,99771.28
2022-09-28T23:16:09.199Z,99764.69
2022-09-28T23:18:38.515Z,99770.78
2022-09-28T23:21:07.867Z,99769.94
2022-09-28T23:23:35.383Z,99771.38
2022-09-28T23:26:27.064Z,99771.88
2022-09-28T23:28:54.640Z,99771.44
2022-09-28T23:31:24.333Z,99773.66
2022-09-28T23:33:52.372Z,99776.19
2022-09-28T23:36:20.589Z,99774.19
2022-09-28T23:38:47.975Z,99771.31
2022-09-28T23:41:17.280Z,99789.06
2022-09-28T23:43:45.183Z,99784.34
2022-09-28T23:46:14.490Z,99797.09
2022-09-28T23:48:43.428Z,99797.16
2022-09-28T23:51:10.674Z,99794.78
2022-09-28T23:53:38.290Z,99787.34
2022-09-28T23:56:05.801Z,99787.88
2022-09-28T23:58:33.073Z,99794.66
